x

West Gulf - 207 Nm East Of Brownsville, Tx (42002) Wave Buoy

7:50pm - Mon 22nd Dec 2014 All times are CST. -6 hours from GMT.

  • Sig Wave height 3.6ft
  • Swell Direction
  • Peak Period 5s
  • Average Period 4s
  • Wind
    16mph, 18mph gusts
  • Sea Temp 74°f
  • Air Temp 74°f
  • Sea Pressure 1006.1mb
  • West Gulf - 207 Nm East Of Brownsville, Tx
  • West Gulf - 207 Nm East Of Brownsville, Tx

More Historic Weather Station data

Upgrade to MSW Pro to gain access to the past 30 days of data for over 8000 Wavebouys and Weather Stations around the globe.

Join Pro

Comparision Forecast

View Surf forecast
   
Mon 12/22 7:50pm 3.5ft 5s 4s 16 18 mph 1006.1mb 74f 74f
6:50pm 3.5ft 5s 4s 16 20 mph 1005.9mb 74f 74f
5:50pm 3.5ft 5s 5s 13 18 mph 1005.8mb 74f 74f
4:50pm 3.5ft 5s 4s 16 18 mph 1005.8mb 74f 74f
3:50pm 3.5ft 5s 4s 18 22 mph 1006.1mb 74f 74f
2:50pm 3ft 5s 4s 18 20 mph 1006.5mb 74f 74f
1:50pm 3.5ft 5s 4s 18 22 mph 1007mb 74f 74f
12:50pm 3.5ft 5s 4s 16 18 mph 1008.3mb 74f 74f
11:50am 3.5ft 5s 4s 16 18 mph 1009.1mb 74f 74f
10:50am 3.5ft 5s 4s 16 18 mph 1009.7mb 73f 74f
9:50am 3.5ft 5s 4s 16 18 mph 1010.4mb 73f 74f
8:50am 4ft 5s 4s 18 20 mph 1010.4mb 73f 74f
7:50am 3.5ft 5s 4s 16 18 mph 1009.9mb 73f 74f
6:50am 3.5ft 5s 4s 18 20 mph 1009.8mb 73f 74f
5:50am 3.5ft 5s 4s 18 22 mph 1009.3mb 73f 74f
4:50am 3.5ft 4s 4s 18 22 mph 1009.2mb 73f 73f
3:50am 3ft 4s 4s 18 20 mph 1009.4mb 73f 73f
2:50am 2.5ft 7s 5s 9
mph
1010.4mb 73f 73f
1:50am 3ft 7s 5s 11
mph
1010.9mb 73f 73f
12:50am 3ft 6s 5s 9 13 mph 1011.6mb 73f 73f
Sun 12/21 11:50pm 3ft 6s 5s 4 7 mph 1012mb 73f 71f
10:50pm 2.5ft 5s 5s 2
mph
1012.4mb 73f 71f
9:50pm 3ft 5s 5s 4
mph
1012.7mb 73f 71f
8:50pm 2.5ft 8s 5s 4
mph
1012.8mb 73f 72f
7:50pm 2.5ft 8s 5s 4 7 mph 1012.5mb 73f 72f
6:50pm 2.5ft 6s 5s 9 11 mph 1012.2mb 73f 71f
5:50pm 2.5ft 6s 4s 9 11 mph 1012.3mb 73f 71f
4:50pm 3ft 6s 4s 11 13 mph 1012mb 73f 71f
3:50pm 3.5ft 5s 5s 18 20 mph 1012.3mb 73f 71f
2:50pm 3.5ft 5s 4s 13 18 mph 1012.2mb 73f 72f
1:50pm 3.5ft 6s 5s 18 22 mph 1012.2mb 73f 72f
12:50pm 4ft 5s 5s 18 20 mph 1013.3mb 73f 72f
11:50am 4ft 6s 5s 18 20 mph 1014.9mb 73f 72f
10:50am 4ft 7s 5s 16 18 mph 1016.1mb 73f 72f
9:50am 3.5ft 6s 5s 18 20 mph 1016.2mb 73f 72f
8:50am 4ft 6s 5s 18 20 mph 1016.6mb 73f 71f
7:50am 4ft 7s 5s 16 18 mph 1016.8mb 73f 71f
6:50am 4.5ft 6s 5s 16 18 mph 1016.3mb 73f 71f
5:50am 4.5ft 6s 5s 13 16 mph 1016.4mb 73f 71f
4:50am 4.5ft 6s 5s 11 13 mph 1016mb 73f 71f
3:50am 4ft 7s 5s 11 13 mph 1016.2mb 73f 70f
2:50am 4ft 7s 5s 13 16 mph 1016.4mb 73f 70f
1:50am 4.5ft 7s 5s 13 16 mph 1017.1mb 73f 69f
12:50am 4.5ft 7s 5s 11 13 mph 1017.6mb 73f 70f
Sat 12/20 11:50pm 4.5ft 6s 5s 13 16 mph 1017.7mb 73f 71f
10:50pm 4.5ft 7s 5s 16 18 mph 1017.8mb 73f 70f
9:50pm 4.5ft 7s 5s 16 18 mph 1017.8mb 73f 70f
8:50pm 4.5ft 6s 5s 16 18 mph 1017.4mb 73f 70f
7:50pm 4.5ft 7s 5s 16 18 mph 1017.5mb 73f 70f
6:50pm 5ft 7s 5s 16 18 mph 1017.1mb 73f 70f
5:50pm 5ft 6s 5s 16 20 mph 1017mb 73f 69f
4:50pm 5ft 7s 5s 16 18 mph 1016.6mb 73f 69f
3:50pm 5ft 7s 5s 16 18 mph 1016.5mb 73f 69f
2:50pm 5ft 7s 5s 16 20 mph 1016.3mb 73f 70f
1:50pm 5ft 7s 5s 18 22 mph 1016.5mb 73f 70f
12:50pm 5ft 7s 5s 18 20 mph 1016.9mb 73f 70f
11:50am 5ft 6s 5s 20 25 mph 1017.3mb 73f 70f
10:50am 5.5ft 7s 5s 20 25 mph 1018mb 73f 70f
9:50am 6ft 6s 5s 20 25 mph 1017.9mb 73f 70f
8:50am 5ft 6s 5s 20 25 mph 1017.7mb 73f 70f
7:50am 4.5ft 6s 5s 20 25 mph 1017.2mb 73f 71f
6:50am 3.5ft 6s 4s 18 22 mph 1016.6mb 73f 71f
5:50am 3.5ft 6s 4s 16 20 mph 1015.9mb 73f 71f
4:50am 3ft 6s 4s 16 18 mph 1015.2mb 73f 71f
3:50am 3ft 6s 4s 13 16 mph 1015.4mb 73f 72f
2:50am 2.5ft 6s 5s 11 13 mph 1015.3mb 73f 72f
1:50am 3ft 6s 5s 11 13 mph 1015.3mb 73f 72f
12:50am 2.5ft 6s 5s 11 13 mph 1015.3mb 73f 71f
Fri 12/19 11:50pm 2.5ft 6s 5s 13 16 mph 1015.5mb 73f 72f
10:50pm 3ft 6s 5s 7
mph
1015.8mb 73f 73f
9:50pm 3ft 6s 5s 7 9 mph 1015.8mb 73f 73f
8:50pm 3ft 6s 5s 9
mph
1015.3mb 73f 73f
7:50pm 3ft 6s 5s 9 11 mph 1015.1mb 73f 73f
6:50pm 3ft 6s 5s 9 11 mph 1014.7mb 73f 73f
5:50pm 3.5ft 6s 5s 9
mph
1014.2mb 73f 73f
4:50pm 3.5ft 6s 5s 11 13 mph 1013.6mb 73f 73f
3:50pm 3.5ft 6s 5s 11 13 mph 1013.4mb 73f 73f
2:50pm 3.5ft 6s 5s 9 11 mph 1013.6mb 73f 74f
1:50pm 4ft 6s 5s 9 11 mph 1014mb 73f 74f
12:50pm 4ft 6s 5s 9 11 mph 1014.8mb 73f 74f
11:50am 4.5ft 6s 5s 11 13 mph 1015.9mb 73f 74f
10:50am 4ft 6s 5s 11 13 mph 1016.7mb 73f 74f
9:50am 4ft 6s 5s 13 16 mph 1016.9mb 73f 74f
8:50am 4.5ft 6s 5s 13 16 mph 1016.7mb 73f 74f
7:50am 4ft 5s 5s 13 16 mph 1016.3mb 73f 74f
6:50am 4ft 6s 5s 16 20 mph 1015.8mb 73f 74f
5:50am 4ft 5s 4s 16 18 mph 1015.3mb 73f 74f
4:50am 3.5ft 6s 4s 16 20 mph 1014.5mb 73f 74f
3:50am 3ft 6s 4s 18 22 mph 1014.2mb 73f 74f